sensor_id;sensor_type;location;lat;lon;timestamp;temperature;humidity
26342;DHT22;14054;50.108;8.640;2022-07-23T00:02:06;22.00;99.90
26342;DHT22;14054;50.108;8.640;2022-07-23T00:04:32;21.80;99.90
26342;DHT22;14054;50.108;8.640;2022-07-23T00:06:58;21.80;99.90
26342;DHT22;14054;50.108;8.640;2022-07-23T00:09:24;21.70;99.90
26342;DHT22;14054;50.108;8.640;2022-07-23T00:11:50;21.70;99.90
26342;DHT22;14054;50.108;8.640;2022-07-23T00:14:15;21.70;99.90
26342;DHT22;14054;50.108;8.640;2022-07-23T00:16:41;21.70;99.90
26342;DHT22;14054;50.108;8.640;2022-07-23T00:19:09;21.60;99.90
26342;DHT22;14054;50.108;8.640;2022-07-23T00:21:35;21.40;99.90
26342;DHT22;14054;50.108;8.640;2022-07-23T00:24:00;21.40;99.90
26342;DHT22;14054;50.108;8.640;2022-07-23T00:26:26;21.50;99.90
26342;DHT22;14054;50.108;8.640;2022-07-23T00:28:51;21.50;99.90
26342;DHT22;14054;50.108;8.640;2022-07-23T00:31:17;21.40;99.90
26342;DHT22;14054;50.108;8.640;2022-07-23T00:33:42;21.50;99.90
26342;DHT22;14054;50.108;8.640;2022-07-23T00:36:08;21.50;99.90
26342;DHT22;14054;50.108;8.640;2022-07-23T00:38:33;21.40;99.90
26342;DHT22;14054;50.108;8.640;2022-07-23T00:40:59;21.40;99.90
26342;DHT22;14054;50.108;8.640;2022-07-23T00:43:24;21.40;99.90
26342;DHT22;14054;50.108;8.640;2022-07-23T00:45:50;21.50;99.90
26342;DHT22;14054;50.108;8.640;2022-07-23T00:48:15;21.50;99.90
26342;DHT22;14054;50.108;8.640;2022-07-23T00:50:42;21.50;99.90
26342;DHT22;14054;50.108;8.640;2022-07-23T00:53:07;21.40;99.90
26342;DHT22;14054;50.108;8.640;2022-07-23T00:55:34;21.40;99.90
26342;DHT22;14054;50.108;8.640;2022-07-23T00:57:59;21.30;99.90
26342;DHT22;14054;50.108;8.640;2022-07-23T01:00:25;21.20;99.90
26342;DHT22;14054;50.108;8.640;2022-07-23T01:02:51;21.20;99.90
26342;DHT22;14054;50.108;8.640;2022-07-23T01:05:16;21.10;99.90
26342;DHT22;14054;50.108;8.640;2022-07-23T01:07:47;21.10;99.90
26342;DHT22;14054;50.108;8.640;2022-07-23T01:10:13;21.20;99.90
26342;DHT22;14054;50.108;8.640;2022-07-23T01:13:02;21.20;99.90
26342;DHT22;14054;50.108;8.640;2022-07-23T01:15:28;21.10;99.90
26342;DHT22;14054;50.108;8.640;2022-07-23T01:17:54;21.10;99.90
26342;DHT22;14054;50.108;8.640;2022-07-23T01:20:20;21.00;99.90
26342;DHT22;14054;50.108;8.640;2022-07-23T01:22:46;21.00;99.90
26342;DHT22;14054;50.108;8.640;2022-07-23T01:25:11;20.90;99.90
26342;DHT22;14054;50.108;8.640;2022-07-23T01:27:37;21.00;99.90
26342;DHT22;14054;50.108;8.640;2022-07-23T01:30:03;21.10;99.90
26342;DHT22;14054;50.108;8.640;2022-07-23T01:32:28;21.20;99.90
26342;DHT22;14054;50.108;8.640;2022-07-23T01:34:54;21.20;99.90
26342;DHT22;14054;50.108;8.640;2022-07-23T01:37:19;21.30;99.90
26342;DHT22;14054;50.108;8.640;2022-07-23T01:39:45;21.30;99.90
26342;DHT22;14054;50.108;8.640;2022-07-23T01:42:10;21.30;99.90
26342;DHT22;14054;50.108;8.640;2022-07-23T01:44:36;21.30;99.90
26342;DHT22;14054;50.108;8.640;2022-07-23T01:47:02;21.10;99.90
26342;DHT22;14054;50.108;8.640;2022-07-23T01:49:27;21.10;99.90
26342;DHT22;14054;50.108;8.640;2022-07-23T01:51:53;21.10;99.90
26342;DHT22;14054;50.108;8.640;2022-07-23T01:54:33;21.10;99.90
26342;DHT22;14054;50.108;8.640;2022-07-23T01:56:59;21.10;99.90
26342;DHT22;14054;50.108;8.640;2022-07-23T01:59:25;21.10;99.90
26342;DHT22;14054;50.108;8.640;2022-07-23T02:01:51;21.00;99.90
26342;DHT22;14054;50.108;8.640;2022-07-23T02:04:18;20.90;99.90
26342;DHT22;14054;50.108;8.640;2022-07-23T02:06:43;20.90;99.90
26342;DHT22;14054;50.108;8.640;2022-07-23T02:09:09;20.70;99.90
26342;DHT22;14054;50.108;8.640;2022-07-23T02:11:34;20.70;99.90
26342;DHT22;14054;50.108;8.640;2022-07-23T02:14:00;20.80;99.90
26342;DHT22;14054;50.108;8.640;2022-07-23T02:16:25;20.90;99.90
26342;DHT22;14054;50.108;8.640;2022-07-23T02:18:51;20.90;99.90
26342;DHT22;14054;50.108;8.640;2022-07-23T02:21:16;20.80;99.90
26342;DHT22;14054;50.108;8.640;2022-07-23T02:23:42;20.80;99.90
26342;DHT22;14054;50.108;8.640;2022-07-23T02:26:07;20.70;99.90
26342;DHT22;14054;50.108;8.640;2022-07-23T02:28:33;20.70;99.90
26342;DHT22;14054;50.108;8.640;2022-07-23T02:30:58;20.60;99.90
26342;DHT22;14054;50.108;8.640;2022-07-23T02:33:24;20.60;99.90
26342;DHT22;14054;50.108;8.640;2022-07-23T02:35:50;20.70;99.90
26342;DHT22;14054;50.108;8.640;2022-07-23T02:38:15;20.70;99.90
26342;DHT22;14054;50.108;8.640;2022-07-23T02:40:40;20.60;99.90
26342;DHT22;14054;50.108;8.640;2022-07-23T02:43:06;20.70;99.90
26342;DHT22;14054;50.108;8.640;2022-07-23T02:45:31;20.80;99.90
26342;DHT22;14054;50.108;8.640;2022-07-23T02:47:57;20.80;99.90
26342;DHT22;14054;50.108;8.640;2022-07-23T02:50:23;20.80;99.90
26342;DHT22;14054;50.108;8.640;2022-07-23T02:52:48;20.80;99.90
26342;DHT22;14054;50.108;8.640;2022-07-23T02:55:14;20.80;99.90
26342;DHT22;14054;50.108;8.640;2022-07-23T02:57:39;20.80;99.90
26342;DHT22;14054;50.108;8.640;2022-07-23T03:00:06;20.90;99.90
26342;DHT22;14054;50.108;8.640;2022-07-23T03:02:32;20.90;99.90
26342;DHT22;14054;50.108;8.640;2022-07-23T03:04:57;20.80;99.90
26342;DHT22;14054;50.108;8.640;2022-07-23T03:07:23;20.60;99.90
26342;DHT22;14054;50.108;8.640;2022-07-23T03:09:48;20.70;99.90
26342;DHT22;14054;50.108;8.640;2022-07-23T03:12:14;20.60;99.90
26342;DHT22;14054;50.108;8.640;2022-07-23T03:14:40;20.60;99.90
26342;DHT22;14054;50.108;8.640;2022-07-23T03:17:06;20.50;99.90
26342;DHT22;14054;50.108;8.640;2022-07-23T03:19:31;20.50;99.90
26342;DHT22;14054;50.108;8.640;2022-07-23T03:21:57;20.60;99.90
26342;DHT22;14054;50.108;8.640;2022-07-23T03:24:22;20.60;99.90
26342;DHT22;14054;50.108;8.640;2022-07-23T03:26:49;20.60;99.90
26342;DHT22;14054;50.108;8.640;2022-07-23T03:29:15;20.60;99.90
26342;DHT22;14054;50.108;8.640;2022-07-23T03:31:41;20.60;99.90
26342;DHT22;14054;50.108;8.640;2022-07-23T03:34:06;20.60;99.90
26342;DHT22;14054;50.108;8.640;2022-07-23T03:36:32;20.50;99.90
26342;DHT22;14054;50.108;8.640;2022-07-23T03:38:58;20.50;99.90
26342;DHT22;14054;50.108;8.640;2022-07-23T03:41:23;20.40;99.90
26342;DHT22;14054;50.108;8.640;2022-07-23T03:43:48;20.30;99.90
26342;DHT22;14054;50.108;8.640;2022-07-23T03:46:14;20.30;99.90
26342;DHT22;14054;50.108;8.640;2022-07-23T03:48:39;20.30;99.90
26342;DHT22;14054;50.108;8.640;2022-07-23T03:51:05;20.30;99.90
26342;DHT22;14054;50.108;8.640;2022-07-23T03:53:31;20.30;99.90
26342;DHT22;14054;50.108;8.640;2022-07-23T03:55:56;20.40;99.90
26342;DHT22;14054;50.108;8.640;2022-07-23T03:58:22;20.30;99.90
26342;DHT22;14054;50.108;8.640;2022-07-23T04:00:47;20.30;99.90
26342;DHT22;14054;50.108;8.640;2022-07-23T04:03:12;20.30;99.90
26342;DHT22;14054;50.108;8.640;2022-07-23T04:05:38;20.40;99.90
26342;DHT22;14054;50.108;8.640;2022-07-23T04:08:04;20.50;99.90
26342;DHT22;14054;50.108;8.640;2022-07-23T04:10:29;20.40;99.90
26342;DHT22;14054;50.108;8.640;2022-07-23T04:12:54;20.50;99.90
26342;DHT22;14054;50.108;8.640;2022-07-23T04:15:20;20.50;99.90
26342;DHT22;14054;50.108;8.640;2022-07-23T04:17:45;20.40;99.90
26342;DHT22;14054;50.108;8.640;2022-07-23T04:20:12;20.30;99.90
26342;DHT22;14054;50.108;8.640;2022-07-23T04:22:38;20.40;99.90
26342;DHT22;14054;50.108;8.640;2022-07-23T04:25:04;20.50;99.90
26342;DHT22;14054;50.108;8.640;2022-07-23T04:27:29;20.40;99.90
26342;DHT22;14054;50.108;8.640;2022-07-23T04:29:55;20.50;99.90
26342;DHT22;14054;50.108;8.640;2022-07-23T04:32:21;20.50;99.90
26342;DHT22;14054;50.108;8.640;2022-07-23T04:34:47;20.40;99.90
26342;DHT22;14054;50.108;8.640;2022-07-23T04:37:12;20.40;99.90
26342;DHT22;14054;50.108;8.640;2022-07-23T04:39:37;20.30;99.90
26342;DHT22;14054;50.108;8.640;2022-07-23T04:42:03;20.30;99.90
26342;DHT22;14054;50.108;8.640;2022-07-23T04:44:29;20.30;99.90
26342;DHT22;14054;50.108;8.640;2022-07-23T04:46:54;20.10;99.90
26342;DHT22;14054;50.108;8.640;2022-07-23T04:49:20;20.00;99.90
26342;DHT22;14054;50.108;8.640;2022-07-23T04:51:45;20.00;99.90
26342;DHT22;14054;50.108;8.640;2022-07-23T04:54:10;19.90;99.90
26342;DHT22;14054;50.108;8.640;2022-07-23T04:56:36;19.90;99.90
26342;DHT22;14054;50.108;8.640;2022-07-23T04:59:01;20.10;99.90
26342;DHT22;14054;50.108;8.640;2022-07-23T05:01:27;20.10;99.90
26342;DHT22;14054;50.108;8.640;2022-07-23T05:03:52;20.00;99.90
26342;DHT22;14054;50.108;8.640;2022-07-23T05:06:18;20.00;99.90
26342;DHT22;14054;50.108;8.640;2022-07-23T05:08:43;20.10;99.90
26342;DHT22;14054;50.108;8.640;2022-07-23T05:11:09;20.20;99.90
26342;DHT22;14054;50.108;8.640;2022-07-23T05:13:34;20.20;99.90
26342;DHT22;14054;50.108;8.640;2022-07-23T05:16:00;20.40;99.90
26342;DHT22;14054;50.108;8.640;2022-07-23T05:18:25;20.40;99.90
26342;DHT22;14054;50.108;8.640;2022-07-23T05:20:51;20.40;99.90
26342;DHT22;14054;50.108;8.640;2022-07-23T05:23:16;20.30;99.90
26342;DHT22;14054;50.108;8.640;2022-07-23T05:25:42;20.10;99.90
26342;DHT22;14054;50.108;8.640;2022-07-23T05:28:07;20.10;99.90
26342;DHT22;14054;50.108;8.640;2022-07-23T05:30:33;20.20;99.90
26342;DHT22;14054;50.108;8.640;2022-07-23T05:32:58;20.20;99.90
26342;DHT22;14054;50.108;8.640;2022-07-23T05:35:24;20.20;99.90
26342;DHT22;14054;50.108;8.640;2022-07-23T05:37:49;20.30;99.90
26342;DHT22;14054;50.108;8.640;2022-07-23T05:40:18;20.30;99.90
26342;DHT22;14054;50.108;8.640;2022-07-23T05:42:43;20.40;99.90
26342;DHT22;14054;50.108;8.640;2022-07-23T05:45:09;20.40;99.90
26342;DHT22;14054;50.108;8.640;2022-07-23T05:47:44;20.50;99.90
26342;DHT22;14054;50.108;8.640;2022-07-23T05:50:10;20.50;99.90
26342;DHT22;14054;50.108;8.640;2022-07-23T05:52:35;20.40;99.90
26342;DHT22;14054;50.108;8.640;2022-07-23T05:55:01;20.20;99.90
26342;DHT22;14054;50.108;8.640;2022-07-23T05:57:26;20.30;99.90
26342;DHT22;14054;50.108;8.640;2022-07-23T05:59:52;20.40;99.90
26342;DHT22;14054;50.108;8.640;2022-07-23T06:02:17;20.60;99.90
26342;DHT22;14054;50.108;8.640;2022-07-23T06:04:43;20.70;99.90
26342;DHT22;14054;50.108;8.640;2022-07-23T06:07:08;20.60;99.90
26342;DHT22;14054;50.108;8.640;2022-07-23T06:09:34;20.40;99.90
26342;DHT22;14054;50.108;8.640;2022-07-23T06:11:59;20.20;99.90
26342;DHT22;14054;50.108;8.640;2022-07-23T06:14:25;20.10;99.90
26342;DHT22;14054;50.108;8.640;2022-07-23T06:16:50;20.20;99.90
26342;DHT22;14054;50.108;8.640;2022-07-23T06:19:16;20.40;99.90
26342;DHT22;14054;50.108;8.640;2022-07-23T06:21:41;20.60;99.90
26342;DHT22;14054;50.108;8.640;2022-07-23T06:24:07;20.70;99.90
26342;DHT22;14054;50.108;8.640;2022-07-23T06:26:32;21.00;99.90
26342;DHT22;14054;50.108;8.640;2022-07-23T06:28:58;21.20;99.90
26342;DHT22;14054;50.108;8.640;2022-07-23T06:31:23;21.20;99.90
26342;DHT22;14054;50.108;8.640;2022-07-23T06:33:49;21.30;99.90
26342;DHT22;14054;50.108;8.640;2022-07-23T06:36:15;21.40;99.90
26342;DHT22;14054;50.108;8.640;2022-07-23T06:38:40;21.40;99.90
26342;DHT22;14054;50.108;8.640;2022-07-23T06:41:06;21.40;99.90
26342;DHT22;14054;50.108;8.640;2022-07-23T06:43:31;21.20;99.90
26342;DHT22;14054;50.108;8.640;2022-07-23T06:45:57;21.20;99.90
26342;DHT22;14054;50.108;8.640;2022-07-23T06:48:22;21.20;99.90
26342;DHT22;14054;50.108;8.640;2022-07-23T06:50:48;21.30;99.90
26342;DHT22;14054;50.108;8.640;2022-07-23T06:53:13;21.50;99.90
26342;DHT22;14054;50.108;8.640;2022-07-23T06:55:39;21.60;99.90
26342;DHT22;14054;50.108;8.640;2022-07-23T06:58:05;21.80;99.90
26342;DHT22;14054;50.108;8.640;2022-07-23T07:00:31;21.90;99.90
26342;DHT22;14054;50.108;8.640;2022-07-23T07:02:57;22.40;99.90
26342;DHT22;14054;50.108;8.640;2022-07-23T07:05:23;22.50;99.90
26342;DHT22;14054;50.108;8.640;2022-07-23T07:07:50;22.60;99.90
26342;DHT22;14054;50.108;8.640;2022-07-23T07:10:16;22.60;99.90
26342;DHT22;14054;50.108;8.640;2022-07-23T07:12:43;22.50;99.90
26342;DHT22;14054;50.108;8.640;2022-07-23T07:15:08;22.60;99.90
26342;DHT22;14054;50.108;8.640;2022-07-23T07:17:34;22.80;99.90
26342;DHT22;14054;50.108;8.640;2022-07-23T07:19:59;22.80;99.90
26342;DHT22;14054;50.108;8.640;2022-07-23T07:22:25;23.10;99.90
26342;DHT22;14054;50.108;8.640;2022-07-23T07:24:50;23.10;99.90
26342;DHT22;14054;50.108;8.640;2022-07-23T07:27:16;22.90;99.90
26342;DHT22;14054;50.108;8.640;2022-07-23T07:29:41;23.00;99.90
26342;DHT22;14054;50.108;8.640;2022-07-23T07:32:07;23.10;99.90
26342;DHT22;14054;50.108;8.640;2022-07-23T07:34:32;23.00;99.90
26342;DHT22;14054;50.108;8.640;2022-07-23T07:36:58;23.10;99.90
26342;DHT22;14054;50.108;8.640;2022-07-23T07:39:23;23.00;99.90
26342;DHT22;14054;50.108;8.640;2022-07-23T07:41:49;23.10;99.90
26342;DHT22;14054;50.108;8.640;2022-07-23T07:44:14;23.40;99.90
26342;DHT22;14054;50.108;8.640;2022-07-23T07:46:39;23.40;99.90
26342;DHT22;14054;50.108;8.640;2022-07-23T07:49:05;23.60;99.90
26342;DHT22;14054;50.108;8.640;2022-07-23T07:51:30;23.30;99.90
26342;DHT22;14054;50.108;8.640;2022-07-23T07:53:58;23.40;99.90
26342;DHT22;14054;50.108;8.640;2022-07-23T07:56:23;23.40;99.90
26342;DHT22;14054;50.108;8.640;2022-07-23T07:58:49;23.20;99.90
26342;DHT22;14054;50.108;8.640;2022-07-23T08:01:14;23.50;99.90
26342;DHT22;14054;50.108;8.640;2022-07-23T08:03:40;23.70;99.90
26342;DHT22;14054;50.108;8.640;2022-07-23T08:06:05;24.10;99.90
26342;DHT22;14054;50.108;8.640;2022-07-23T08:08:31;24.40;99.90
26342;DHT22;14054;50.108;8.640;2022-07-23T08:10:56;24.20;99.90
26342;DHT22;14054;50.108;8.640;2022-07-23T08:13:22;24.10;99.90
26342;DHT22;14054;50.108;8.640;2022-07-23T08:15:47;24.40;99.90
26342;DHT22;14054;50.108;8.640;2022-07-23T08:18:13;24.80;99.90
26342;DHT22;14054;50.108;8.640;2022-07-23T08:20:38;25.30;99.90
26342;DHT22;14054;50.108;8.640;2022-07-23T08:23:06;25.10;99.90
26342;DHT22;14054;50.108;8.640;2022-07-23T08:25:37;25.30;99.90
26342;DHT22;14054;50.108;8.640;2022-07-23T08:28:05;25.70;99.90
26342;DHT22;14054;50.108;8.640;2022-07-23T08:30:31;26.10;99.90
26342;DHT22;14054;50.108;8.640;2022-07-23T08:33:07;25.90;99.90
26342;DHT22;14054;50.108;8.640;2022-07-23T08:35:38;26.10;99.90
26342;DHT22;14054;50.108;8.640;2022-07-23T08:38:06;25.90;99.90
26342;DHT22;14054;50.108;8.640;2022-07-23T08:40:35;25.70;99.90
26342;DHT22;14054;50.108;8.640;2022-07-23T08:43:08;25.40;99.90
26342;DHT22;14054;50.108;8.640;2022-07-23T08:45:37;25.40;99.90
26342;DHT22;14054;50.108;8.640;2022-07-23T08:48:06;25.80;99.90
26342;DHT22;14054;50.108;8.640;2022-07-23T08:50:32;26.00;99.90
26342;DHT22;14054;50.108;8.640;2022-07-23T08:53:00;26.00;99.90
26342;DHT22;14054;50.108;8.640;2022-07-23T08:55:26;26.10;99.90
26342;DHT22;14054;50.108;8.640;2022-07-23T08:57:53;25.90;99.90
26342;DHT22;14054;50.108;8.640;2022-07-23T09:00:20;25.70;99.90
26342;DHT22;14054;50.108;8.640;2022-07-23T09:02:46;25.40;99.90
26342;DHT22;14054;50.108;8.640;2022-07-23T09:05:13;25.50;99.90
26342;DHT22;14054;50.108;8.640;2022-07-23T09:08:05;25.70;99.90
26342;DHT22;14054;50.108;8.640;2022-07-23T09:10:52;25.90;99.90
26342;DHT22;14054;50.108;8.640;2022-07-23T09:13:33;26.30;99.90
26342;DHT22;14054;50.108;8.640;2022-07-23T09:16:11;26.20;99.90
26342;DHT22;14054;50.108;8.640;2022-07-23T09:18:43;26.20;99.90
26342;DHT22;14054;50.108;8.640;2022-07-23T09:21:21;26.30;99.90
26342;DHT22;14054;50.108;8.640;2022-07-23T09:23:57;25.90;99.90
26342;DHT22;14054;50.108;8.640;2022-07-23T09:26:37;26.20;99.90
26342;DHT22;14054;50.108;8.640;2022-07-23T09:36:41;27.20;99.20
26342;DHT22;14054;50.108;8.640;2022-07-23T09:39:09;27.00;99.10
26342;DHT22;14054;50.108;8.640;2022-07-23T09:41:43;27.50;98.40
26342;DHT22;14054;50.108;8.640;2022-07-23T09:46:36;27.30;98.20
26342;DHT22;14054;50.108;8.640;2022-07-23T09:49:14;27.10;97.90
26342;DHT22;14054;50.108;8.640;2022-07-23T09:51:44;27.30;97.90
26342;DHT22;14054;50.108;8.640;2022-07-23T09:54:32;27.60;97.70
26342;DHT22;14054;50.108;8.640;2022-07-23T09:57:10;27.00;98.00
26342;DHT22;14054;50.108;8.640;2022-07-23T09:59:41;27.50;97.50
26342;DHT22;14054;50.108;8.640;2022-07-23T10:02:08;27.50;97.00
26342;DHT22;14054;50.108;8.640;2022-07-23T10:04:35;27.70;96.60
26342;DHT22;14054;50.108;8.640;2022-07-23T10:07:04;27.20;97.00
26342;DHT22;14054;50.108;8.640;2022-07-23T10:09:32;27.30;96.60
26342;DHT22;14054;50.108;8.640;2022-07-23T10:12:01;27.70;96.00
26342;DHT22;14054;50.108;8.640;2022-07-23T10:14:32;27.80;95.70
26342;DHT22;14054;50.108;8.640;2022-07-23T10:17:02;27.90;94.90
26342;DHT22;14054;50.108;8.640;2022-07-23T10:19:28;27.60;95.30
26342;DHT22;14054;50.108;8.640;2022-07-23T10:22:02;28.10;95.30
26342;DHT22;14054;50.108;8.640;2022-07-23T10:24:44;27.90;94.80
26342;DHT22;14054;50.108;8.640;2022-07-23T10:30:34;28.50;93.00
26342;DHT22;14054;50.108;8.640;2022-07-23T10:36:02;28.80;92.90
26342;DHT22;14054;50.108;8.640;2022-07-23T10:38:53;28.60;92.60
26342;DHT22;14054;50.108;8.640;2022-07-23T10:41:35;28.50;93.00
26342;DHT22;14054;50.108;8.640;2022-07-23T10:44:15;28.20;92.50
26342;DHT22;14054;50.108;8.640;2022-07-23T10:46:55;28.20;93.40
26342;DHT22;14054;50.108;8.640;2022-07-23T10:49:33;28.60;93.00
26342;DHT22;14054;50.108;8.640;2022-07-23T10:54:54;29.30;91.20
26342;DHT22;14054;50.108;8.640;2022-07-23T10:57:27;29.60;91.70
26342;DHT22;14054;50.108;8.640;2022-07-23T11:02:41;30.20;90.40
26342;DHT22;14054;50.108;8.640;2022-07-23T11:05:08;30.40;89.10
26342;DHT22;14054;50.108;8.640;2022-07-23T11:07:35;30.70;87.60
26342;DHT22;14054;50.108;8.640;2022-07-23T11:10:02;30.20;87.50
26342;DHT22;14054;50.108;8.640;2022-07-23T11:15:09;29.80;90.10
26342;DHT22;14054;50.108;8.640;2022-07-23T11:20:17;30.60;85.20
26342;DHT22;14054;50.108;8.640;2022-07-23T11:25:09;29.10;89.00
26342;DHT22;14054;50.108;8.640;2022-07-23T11:27:38;28.60;90.40
26342;DHT22;14054;50.108;8.640;2022-07-23T11:30:05;28.20;90.70
26342;DHT22;14054;50.108;8.640;2022-07-23T11:32:34;29.00;91.40
26342;DHT22;14054;50.108;8.640;2022-07-23T11:35:03;30.40;84.90
26342;DHT22;14054;50.108;8.640;2022-07-23T11:37:44;30.10;86.00
26342;DHT22;14054;50.108;8.640;2022-07-23T11:40:12;29.70;87.10
26342;DHT22;14054;50.108;8.640;2022-07-23T11:42:57;32.40;99.90
26342;DHT22;14054;50.108;8.640;2022-07-23T11:45:29;32.40;82.50
26342;DHT22;14054;50.108;8.640;2022-07-23T11:47:55;33.10;77.30
26342;DHT22;14054;50.108;8.640;2022-07-23T11:50:23;33.80;71.70
26342;DHT22;14054;50.108;8.640;2022-07-23T11:52:49;31.60;82.80
26342;DHT22;14054;50.108;8.640;2022-07-23T11:55:15;30.20;80.20
26342;DHT22;14054;50.108;8.640;2022-07-23T11:57:43;29.40;83.20
26342;DHT22;14054;50.108;8.640;2022-07-23T12:00:13;29.80;83.00
26342;DHT22;14054;50.108;8.640;2022-07-23T12:02:51;30.10;79.90
26342;DHT22;14054;50.108;8.640;2022-07-23T12:05:26;29.60;81.40
26342;DHT22;14054;50.108;8.640;2022-07-23T12:07:54;29.60;81.80
26342;DHT22;14054;50.108;8.640;2022-07-23T12:10:25;32.80;75.50
26342;DHT22;14054;50.108;8.640;2022-07-23T12:12:56;33.90;99.90
26342;DHT22;14054;50.108;8.640;2022-07-23T12:15:29;35.00;81.80
26342;DHT22;14054;50.108;8.640;2022-07-23T12:17:58;34.40;89.00
26342;DHT22;14054;50.108;8.640;2022-07-23T12:20:31;35.60;96.60
26342;DHT22;14054;50.108;8.640;2022-07-23T12:22:57;35.90;95.90
26342;DHT22;14054;50.108;8.640;2022-07-23T12:25:29;36.10;93.80
26342;DHT22;14054;50.108;8.640;2022-07-23T12:28:04;35.50;92.60
26342;DHT22;14054;50.108;8.640;2022-07-23T12:30:41;34.90;93.40
26342;DHT22;14054;50.108;8.640;2022-07-23T12:33:10;34.10;91.30
26342;DHT22;14054;50.108;8.640;2022-07-23T12:35:41;35.40;84.70
26342;DHT22;14054;50.108;8.640;2022-07-23T12:38:10;36.00;88.00
26342;DHT22;14054;50.108;8.640;2022-07-23T12:40:51;35.80;83.40
26342;DHT22;14054;50.108;8.640;2022-07-23T12:43:32;34.40;81.70
26342;DHT22;14054;50.108;8.640;2022-07-23T12:46:06;32.10;86.80
26342;DHT22;14054;50.108;8.640;2022-07-23T12:51:20;31.50;75.00
26342;DHT22;14054;50.108;8.640;2022-07-23T12:53:48;32.10;74.10
26342;DHT22;14054;50.108;8.640;2022-07-23T12:56:16;31.80;74.20
26342;DHT22;14054;50.108;8.640;2022-07-23T12:59:13;33.10;73.00
26342;DHT22;14054;50.108;8.640;2022-07-23T13:01:43;34.90;88.40
26342;DHT22;14054;50.108;8.640;2022-07-23T13:04:17;36.30;90.00
26342;DHT22;14054;50.108;8.640;2022-07-23T13:06:48;35.40;89.80
26342;DHT22;14054;50.108;8.640;2022-07-23T13:09:19;37.20;88.90
26342;DHT22;14054;50.108;8.640;2022-07-23T13:11:46;37.30;87.80
26342;DHT22;14054;50.108;8.640;2022-07-23T13:14:13;37.80;77.00
26342;DHT22;14054;50.108;8.640;2022-07-23T13:16:40;37.10;48.40
26342;DHT22;14054;50.108;8.640;2022-07-23T13:19:07;36.30;48.00
26342;DHT22;14054;50.108;8.640;2022-07-23T13:21:33;35.50;49.50
26342;DHT22;14054;50.108;8.640;2022-07-23T13:23:58;35.60;49.70
26342;DHT22;14054;50.108;8.640;2022-07-23T13:26:25;34.80;50.00
26342;DHT22;14054;50.108;8.640;2022-07-23T13:28:51;33.20;53.60
26342;DHT22;14054;50.108;8.640;2022-07-23T13:31:17;35.00;85.10
26342;DHT22;14054;50.108;8.640;2022-07-23T13:33:42;35.30;81.40
26342;DHT22;14054;50.108;8.640;2022-07-23T13:36:08;35.90;80.50
26342;DHT22;14054;50.108;8.640;2022-07-23T13:38:34;34.80;81.30
26342;DHT22;14054;50.108;8.640;2022-07-23T13:41:00;33.20;78.90
26342;DHT22;14054;50.108;8.640;2022-07-23T13:43:26;32.70;68.60
26342;DHT22;14054;50.108;8.640;2022-07-23T13:45:52;33.30;57.80
26342;DHT22;14054;50.108;8.640;2022-07-23T13:48:19;32.60;59.10
26342;DHT22;14054;50.108;8.640;2022-07-23T13:50:45;32.40;60.40
26342;DHT22;14054;50.108;8.640;2022-07-23T13:53:14;33.00;58.40
26342;DHT22;14054;50.108;8.640;2022-07-23T13:55:41;33.10;58.30
26342;DHT22;14054;50.108;8.640;2022-07-23T13:58:07;33.10;58.10
26342;DHT22;14054;50.108;8.640;2022-07-23T14:00:34;32.70;60.30
26342;DHT22;14054;50.108;8.640;2022-07-23T14:03:00;34.30;55.30
26342;DHT22;14054;50.108;8.640;2022-07-23T14:05:26;35.30;89.90
26342;DHT22;14054;50.108;8.640;2022-07-23T14:07:52;33.90;85.50
26342;DHT22;14054;50.108;8.640;2022-07-23T14:10:20;34.00;80.40
26342;DHT22;14054;50.108;8.640;2022-07-23T14:12:48;34.10;78.00
26342;DHT22;14054;50.108;8.640;2022-07-23T14:15:14;34.30;75.70
26342;DHT22;14054;50.108;8.640;2022-07-23T14:17:41;33.20;78.70
26342;DHT22;14054;50.108;8.640;2022-07-23T14:20:09;32.90;54.90
26342;DHT22;14054;50.108;8.640;2022-07-23T14:22:35;32.80;86.60
26342;DHT22;14054;50.108;8.640;2022-07-23T14:25:01;31.80;83.60
26342;DHT22;14054;50.108;8.640;2022-07-23T14:27:27;31.80;86.40
26342;DHT22;14054;50.108;8.640;2022-07-23T14:29:54;32.00;85.00
26342;DHT22;14054;50.108;8.640;2022-07-23T14:32:20;32.50;85.10
26342;DHT22;14054;50.108;8.640;2022-07-23T14:34:46;33.70;78.00
26342;DHT22;14054;50.108;8.640;2022-07-23T14:37:11;34.10;75.60
26342;DHT22;14054;50.108;8.640;2022-07-23T14:39:38;34.30;74.40
26342;DHT22;14054;50.108;8.640;2022-07-23T14:42:04;35.70;49.90
26342;DHT22;14054;50.108;8.640;2022-07-23T14:44:30;35.90;53.70
26342;DHT22;14054;50.108;8.640;2022-07-23T14:46:55;36.30;72.00
26342;DHT22;14054;50.108;8.640;2022-07-23T14:49:21;35.00;77.80
26342;DHT22;14054;50.108;8.640;2022-07-23T14:51:46;34.60;77.50
26342;DHT22;14054;50.108;8.640;2022-07-23T14:59:07;32.30;93.40
26342;DHT22;14054;50.108;8.640;2022-07-23T15:01:34;32.50;92.30
26342;DHT22;14054;50.108;8.640;2022-07-23T15:03:59;31.20;79.10
26342;DHT22;14054;50.108;8.640;2022-07-23T15:06:25;31.70;84.10
26342;DHT22;14054;50.108;8.640;2022-07-23T15:08:51;31.10;85.70
26342;DHT22;14054;50.108;8.640;2022-07-23T15:11:16;31.00;84.30
26342;DHT22;14054;50.108;8.640;2022-07-23T15:13:42;31.20;80.70
26342;DHT22;14054;50.108;8.640;2022-07-23T15:16:08;31.40;80.30
26342;DHT22;14054;50.108;8.640;2022-07-23T15:18:34;31.70;79.90
26342;DHT22;14054;50.108;8.640;2022-07-23T15:20:59;31.10;79.70
26342;DHT22;14054;50.108;8.640;2022-07-23T15:23:26;31.30;79.70
26342;DHT22;14054;50.108;8.640;2022-07-23T15:25:51;30.70;56.20
26342;DHT22;14054;50.108;8.640;2022-07-23T15:28:18;30.60;55.60
26342;DHT22;14054;50.108;8.640;2022-07-23T15:30:44;30.40;55.50
26342;DHT22;14054;50.108;8.640;2022-07-23T15:33:09;30.50;55.80
26342;DHT22;14054;50.108;8.640;2022-07-23T15:35:35;30.60;55.80
26342;DHT22;14054;50.108;8.640;2022-07-23T15:38:00;30.40;56.00
26342;DHT22;14054;50.108;8.640;2022-07-23T15:40:26;30.10;76.50
26342;DHT22;14054;50.108;8.640;2022-07-23T15:42:51;29.60;56.80
26342;DHT22;14054;50.108;8.640;2022-07-23T15:45:17;29.70;56.90
26342;DHT22;14054;50.108;8.640;2022-07-23T15:47:42;29.90;56.60
26342;DHT22;14054;50.108;8.640;2022-07-23T15:50:09;29.70;57.00
26342;DHT22;14054;50.108;8.640;2022-07-23T15:52:35;29.80;57.10
26342;DHT22;14054;50.108;8.640;2022-07-23T15:55:01;29.80;57.00
26342;DHT22;14054;50.108;8.640;2022-07-23T15:57:27;29.90;56.90
26342;DHT22;14054;50.108;8.640;2022-07-23T15:59:53;29.70;56.60
26342;DHT22;14054;50.108;8.640;2022-07-23T16:02:22;29.60;56.90
26342;DHT22;14054;50.108;8.640;2022-07-23T16:04:47;29.70;57.10
26342;DHT22;14054;50.108;8.640;2022-07-23T16:07:13;29.80;57.10
26342;DHT22;14054;50.108;8.640;2022-07-23T16:09:38;29.50;56.50